sensor_id;sensor_type;location;lat;lon;timestamp;P1;durP1;ratioP1;P2;durP2;ratioP2
13114;SDS011;6623;52.120;8.660;2023-08-08T00:00:03;1.53;;;1.10;;
13114;SDS011;6623;52.120;8.660;2023-08-08T00:02:29;1.60;;;0.90;;
13114;SDS011;6623;52.120;8.660;2023-08-08T00:04:55;1.80;;;1.10;;
13114;SDS011;6623;52.120;8.660;2023-08-08T00:07:20;1.60;;;0.90;;
13114;SDS011;6623;52.120;8.660;2023-08-08T00:09:46;1.73;;;1.00;;
13114;SDS011;6623;52.120;8.660;2023-08-08T00:12:11;2.30;;;1.23;;
13114;SDS011;6623;52.120;8.660;2023-08-08T00:14:37;1.40;;;1.30;;
13114;SDS011;6623;52.120;8.660;2023-08-08T00:17:03;1.83;;;1.27;;
13114;SDS011;6623;52.120;8.660;2023-08-08T00:19:28;1.97;;;1.10;;
13114;SDS011;6623;52.120;8.660;2023-08-08T00:21:54;1.20;;;1.10;;
13114;SDS011;6623;52.120;8.660;2023-08-08T00:24:20;1.67;;;1.20;;
13114;SDS011;6623;52.120;8.660;2023-08-08T00:26:45;1.77;;;1.10;;
13114;SDS011;6623;52.120;8.660;2023-08-08T00:29:11;2.00;;;1.20;;
13114;SDS011;6623;52.120;8.660;2023-08-08T00:31:36;1.77;;;1.30;;
13114;SDS011;6623;52.120;8.660;2023-08-08T00:34:02;1.70;;;1.20;;
13114;SDS011;6623;52.120;8.660;2023-08-08T00:36:27;1.63;;;1.07;;
13114;SDS011;6623;52.120;8.660;2023-08-08T00:38:53;2.33;;;1.20;;
13114;SDS011;6623;52.120;8.660;2023-08-08T00:41:18;1.57;;;1.20;;
13114;SDS011;6623;52.120;8.660;2023-08-08T00:43:44;1.20;;;1.10;;
13114;SDS011;6623;52.120;8.660;2023-08-08T00:46:10;1.53;;;1.20;;
13114;SDS011;6623;52.120;8.660;2023-08-08T00:48:36;2.30;;;1.40;;
13114;SDS011;6623;52.120;8.660;2023-08-08T00:51:01;1.37;;;1.00;;
13114;SDS011;6623;52.120;8.660;2023-08-08T00:53:28;1.43;;;1.00;;
13114;SDS011;6623;52.120;8.660;2023-08-08T00:55:56;1.37;;;1.13;;
13114;SDS011;6623;52.120;8.660;2023-08-08T00:58:23;1.77;;;1.10;;
13114;SDS011;6623;52.120;8.660;2023-08-08T01:00:49;2.80;;;1.20;;
13114;SDS011;6623;52.120;8.660;2023-08-08T01:03:15;1.40;;;1.07;;
13114;SDS011;6623;52.120;8.660;2023-08-08T01:05:55;1.60;;;1.20;;
13114;SDS011;6623;52.120;8.660;2023-08-08T01:11:13;1.93;;;1.30;;
13114;SDS011;6623;52.120;8.660;2023-08-08T01:13:41;1.50;;;1.00;;
13114;SDS011;6623;52.120;8.660;2023-08-08T01:16:08;1.40;;;1.10;;
13114;SDS011;6623;52.120;8.660;2023-08-08T01:18:35;1.20;;;1.07;;
13114;SDS011;6623;52.120;8.660;2023-08-08T01:21:02;1.70;;;1.30;;
13114;SDS011;6623;52.120;8.660;2023-08-08T01:23:41;1.20;;;1.10;;
13114;SDS011;6623;52.120;8.660;2023-08-08T01:26:11;1.47;;;1.17;;
13114;SDS011;6623;52.120;8.660;2023-08-08T01:28:37;1.30;;;1.20;;
13114;SDS011;6623;52.120;8.660;2023-08-08T01:31:03;1.47;;;1.30;;
13114;SDS011;6623;52.120;8.660;2023-08-08T01:33:29;1.70;;;1.33;;
13114;SDS011;6623;52.120;8.660;2023-08-08T01:36:02;1.93;;;1.30;;
13114;SDS011;6623;52.120;8.660;2023-08-08T01:38:38;2.00;;;1.33;;
13114;SDS011;6623;52.120;8.660;2023-08-08T01:41:07;2.03;;;1.17;;
13114;SDS011;6623;52.120;8.660;2023-08-08T01:43:33;2.03;;;1.30;;
13114;SDS011;6623;52.120;8.660;2023-08-08T01:46:00;2.03;;;1.33;;
13114;SDS011;6623;52.120;8.660;2023-08-08T01:48:28;1.93;;;1.23;;
13114;SDS011;6623;52.120;8.660;2023-08-08T01:50:53;1.80;;;1.30;;
13114;SDS011;6623;52.120;8.660;2023-08-08T01:53:19;2.03;;;1.30;;
13114;SDS011;6623;52.120;8.660;2023-08-08T01:55:44;1.50;;;1.20;;
13114;SDS011;6623;52.120;8.660;2023-08-08T01:58:10;1.70;;;1.20;;
13114;SDS011;6623;52.120;8.660;2023-08-08T02:00:35;1.73;;;1.10;;
13114;SDS011;6623;52.120;8.660;2023-08-08T02:03:01;2.27;;;1.10;;
13114;SDS011;6623;52.120;8.660;2023-08-08T02:05:27;1.57;;;1.20;;
13114;SDS011;6623;52.120;8.660;2023-08-08T02:07:53;1.90;;;1.13;;
13114;SDS011;6623;52.120;8.660;2023-08-08T02:10:18;2.23;;;1.30;;
13114;SDS011;6623;52.120;8.660;2023-08-08T02:12:44;1.67;;;1.20;;
13114;SDS011;6623;52.120;8.660;2023-08-08T02:15:09;1.60;;;1.27;;
13114;SDS011;6623;52.120;8.660;2023-08-08T02:17:37;1.43;;;1.13;;
13114;SDS011;6623;52.120;8.660;2023-08-08T02:20:03;1.53;;;1.13;;
13114;SDS011;6623;52.120;8.660;2023-08-08T02:22:30;1.30;;;1.20;;
13114;SDS011;6623;52.120;8.660;2023-08-08T02:24:55;1.40;;;1.10;;
13114;SDS011;6623;52.120;8.660;2023-08-08T02:27:21;2.00;;;1.10;;
13114;SDS011;6623;52.120;8.660;2023-08-08T02:29:46;1.97;;;1.50;;
13114;SDS011;6623;52.120;8.660;2023-08-08T02:32:12;1.53;;;1.37;;
13114;SDS011;6623;52.120;8.660;2023-08-08T02:34:38;2.03;;;1.40;;
13114;SDS011;6623;52.120;8.660;2023-08-08T02:37:03;3.00;;;1.53;;
13114;SDS011;6623;52.120;8.660;2023-08-08T02:39:29;1.87;;;1.20;;
13114;SDS011;6623;52.120;8.660;2023-08-08T02:41:55;1.83;;;1.37;;
13114;SDS011;6623;52.120;8.660;2023-08-08T02:44:20;1.70;;;1.30;;
13114;SDS011;6623;52.120;8.660;2023-08-08T02:46:47;1.90;;;1.30;;
13114;SDS011;6623;52.120;8.660;2023-08-08T02:49:13;1.73;;;1.37;;
13114;SDS011;6623;52.120;8.660;2023-08-08T02:51:39;1.60;;;1.20;;
13114;SDS011;6623;52.120;8.660;2023-08-08T02:54:04;1.17;;;1.07;;
13114;SDS011;6623;52.120;8.660;2023-08-08T02:56:30;1.93;;;1.20;;
13114;SDS011;6623;52.120;8.660;2023-08-08T02:58:55;1.87;;;1.20;;
13114;SDS011;6623;52.120;8.660;2023-08-08T03:01:21;1.67;;;1.23;;
13114;SDS011;6623;52.120;8.660;2023-08-08T03:03:47;1.87;;;1.17;;
13114;SDS011;6623;52.120;8.660;2023-08-08T03:06:13;2.23;;;1.40;;
13114;SDS011;6623;52.120;8.660;2023-08-08T03:08:38;2.47;;;1.37;;
13114;SDS011;6623;52.120;8.660;2023-08-08T03:11:04;2.67;;;1.20;;
13114;SDS011;6623;52.120;8.660;2023-08-08T03:13:29;1.60;;;1.27;;
13114;SDS011;6623;52.120;8.660;2023-08-08T03:15:55;1.77;;;1.20;;
13114;SDS011;6623;52.120;8.660;2023-08-08T03:18:21;1.40;;;1.20;;
13114;SDS011;6623;52.120;8.660;2023-08-08T03:20:48;1.53;;;1.20;;
13114;SDS011;6623;52.120;8.660;2023-08-08T03:23:13;1.60;;;1.20;;
13114;SDS011;6623;52.120;8.660;2023-08-08T03:25:39;1.47;;;1.10;;
13114;SDS011;6623;52.120;8.660;2023-08-08T03:28:04;1.40;;;1.20;;
13114;SDS011;6623;52.120;8.660;2023-08-08T03:30:30;1.77;;;1.27;;
13114;SDS011;6623;52.120;8.660;2023-08-08T03:32:55;1.80;;;1.30;;
13114;SDS011;6623;52.120;8.660;2023-08-08T03:35:21;1.77;;;1.20;;
13114;SDS011;6623;52.120;8.660;2023-08-08T03:37:46;2.27;;;1.13;;
13114;SDS011;6623;52.120;8.660;2023-08-08T03:40:12;1.23;;;1.10;;
13114;SDS011;6623;52.120;8.660;2023-08-08T03:42:40;1.10;;;1.00;;
13114;SDS011;6623;52.120;8.660;2023-08-08T03:45:06;2.40;;;1.20;;
13114;SDS011;6623;52.120;8.660;2023-08-08T03:47:32;1.70;;;1.13;;
13114;SDS011;6623;52.120;8.660;2023-08-08T03:49:57;1.60;;;1.20;;
13114;SDS011;6623;52.120;8.660;2023-08-08T03:52:23;1.87;;;1.40;;
13114;SDS011;6623;52.120;8.660;2023-08-08T03:54:49;1.97;;;1.13;;
13114;SDS011;6623;52.120;8.660;2023-08-08T03:57:15;1.70;;;1.10;;
13114;SDS011;6623;52.120;8.660;2023-08-08T03:59:40;1.07;;;0.90;;
13114;SDS011;6623;52.120;8.660;2023-08-08T04:02:06;1.50;;;1.30;;
13114;SDS011;6623;52.120;8.660;2023-08-08T04:04:31;1.40;;;1.10;;
13114;SDS011;6623;52.120;8.660;2023-08-08T04:06:57;1.77;;;1.00;;
13114;SDS011;6623;52.120;8.660;2023-08-08T04:09:22;1.73;;;1.00;;
13114;SDS011;6623;52.120;8.660;2023-08-08T04:11:48;1.90;;;1.13;;
13114;SDS011;6623;52.120;8.660;2023-08-08T04:14:14;2.53;;;1.30;;
13114;SDS011;6623;52.120;8.660;2023-08-08T04:16:39;1.20;;;1.00;;
13114;SDS011;6623;52.120;8.660;2023-08-08T04:19:05;1.20;;;0.90;;
13114;SDS011;6623;52.120;8.660;2023-08-08T04:21:30;2.30;;;1.20;;
13114;SDS011;6623;52.120;8.660;2023-08-08T04:23:59;1.83;;;1.07;;
13114;SDS011;6623;52.120;8.660;2023-08-08T04:26:25;1.30;;;1.10;;
13114;SDS011;6623;52.120;8.660;2023-08-08T04:28:51;1.30;;;1.00;;
13114;SDS011;6623;52.120;8.660;2023-08-08T04:31:16;2.40;;;1.00;;
13114;SDS011;6623;52.120;8.660;2023-08-08T04:33:42;1.27;;;1.10;;
13114;SDS011;6623;52.120;8.660;2023-08-08T04:36:07;1.97;;;1.03;;
13114;SDS011;6623;52.120;8.660;2023-08-08T04:38:33;1.23;;;1.00;;
13114;SDS011;6623;52.120;8.660;2023-08-08T04:40:58;1.80;;;1.10;;
13114;SDS011;6623;52.120;8.660;2023-08-08T04:43:25;1.10;;;1.00;;
13114;SDS011;6623;52.120;8.660;2023-08-08T04:45:52;1.47;;;1.00;;
13114;SDS011;6623;52.120;8.660;2023-08-08T04:48:18;1.80;;;1.10;;
13114;SDS011;6623;52.120;8.660;2023-08-08T04:50:46;1.53;;;0.93;;
13114;SDS011;6623;52.120;8.660;2023-08-08T04:53:11;1.93;;;1.17;;
13114;SDS011;6623;52.120;8.660;2023-08-08T04:55:37;2.07;;;1.10;;
13114;SDS011;6623;52.120;8.660;2023-08-08T04:58:03;2.67;;;1.00;;
13114;SDS011;6623;52.120;8.660;2023-08-08T05:00:28;1.77;;;1.10;;
13114;SDS011;6623;52.120;8.660;2023-08-08T05:02:54;1.43;;;1.00;;
13114;SDS011;6623;52.120;8.660;2023-08-08T05:05:19;1.30;;;1.00;;
13114;SDS011;6623;52.120;8.660;2023-08-08T05:07:45;2.23;;;1.20;;
13114;SDS011;6623;52.120;8.660;2023-08-08T05:10:10;1.13;;;1.03;;
13114;SDS011;6623;52.120;8.660;2023-08-08T05:12:36;1.43;;;1.03;;
13114;SDS011;6623;52.120;8.660;2023-08-08T05:15:01;1.23;;;0.93;;
13114;SDS011;6623;52.120;8.660;2023-08-08T05:17:29;1.77;;;1.10;;
13114;SDS011;6623;52.120;8.660;2023-08-08T05:19:55;2.37;;;1.30;;
13114;SDS011;6623;52.120;8.660;2023-08-08T05:22:21;1.90;;;1.03;;
13114;SDS011;6623;52.120;8.660;2023-08-08T05:24:47;2.13;;;1.40;;
13114;SDS011;6623;52.120;8.660;2023-08-08T05:27:12;1.70;;;1.10;;
13114;SDS011;6623;52.120;8.660;2023-08-08T05:29:38;1.60;;;1.10;;
13114;SDS011;6623;52.120;8.660;2023-08-08T05:32:04;1.13;;;1.00;;
13114;SDS011;6623;52.120;8.660;2023-08-08T05:34:31;2.17;;;1.10;;
13114;SDS011;6623;52.120;8.660;2023-08-08T05:36:58;1.97;;;1.10;;
13114;SDS011;6623;52.120;8.660;2023-08-08T05:39:23;1.60;;;1.13;;
13114;SDS011;6623;52.120;8.660;2023-08-08T05:41:49;1.60;;;1.10;;
13114;SDS011;6623;52.120;8.660;2023-08-08T05:44:15;1.97;;;1.10;;
13114;SDS011;6623;52.120;8.660;2023-08-08T05:46:40;1.43;;;1.00;;
13114;SDS011;6623;52.120;8.660;2023-08-08T05:49:06;1.87;;;1.10;;
13114;SDS011;6623;52.120;8.660;2023-08-08T05:51:31;2.20;;;1.10;;
13114;SDS011;6623;52.120;8.660;2023-08-08T05:53:57;1.67;;;1.00;;
13114;SDS011;6623;52.120;8.660;2023-08-08T05:56:23;2.20;;;1.10;;
13114;SDS011;6623;52.120;8.660;2023-08-08T05:58:48;3.63;;;1.20;;
13114;SDS011;6623;52.120;8.660;2023-08-08T06:01:14;1.50;;;1.30;;
13114;SDS011;6623;52.120;8.660;2023-08-08T06:03:39;2.03;;;1.17;;
13114;SDS011;6623;52.120;8.660;2023-08-08T06:06:05;1.87;;;1.10;;
13114;SDS011;6623;52.120;8.660;2023-08-08T06:08:31;1.70;;;1.10;;
13114;SDS011;6623;52.120;8.660;2023-08-08T06:10:57;1.50;;;0.90;;
13114;SDS011;6623;52.120;8.660;2023-08-08T06:13:23;2.17;;;1.00;;
13114;SDS011;6623;52.120;8.660;2023-08-08T06:15:48;1.93;;;1.30;;
13114;SDS011;6623;52.120;8.660;2023-08-08T06:18:14;2.27;;;1.07;;
13114;SDS011;6623;52.120;8.660;2023-08-08T06:20:40;1.57;;;1.10;;
13114;SDS011;6623;52.120;8.660;2023-08-08T06:23:06;1.37;;;1.20;;
13114;SDS011;6623;52.120;8.660;2023-08-08T06:25:32;1.70;;;1.07;;
13114;SDS011;6623;52.120;8.660;2023-08-08T06:27:57;2.03;;;1.20;;
13114;SDS011;6623;52.120;8.660;2023-08-08T06:30:23;1.83;;;1.27;;
13114;SDS011;6623;52.120;8.660;2023-08-08T06:32:48;1.57;;;1.10;;
13114;SDS011;6623;52.120;8.660;2023-08-08T06:35:14;2.17;;;1.20;;
13114;SDS011;6623;52.120;8.660;2023-08-08T06:37:41;1.60;;;1.03;;
13114;SDS011;6623;52.120;8.660;2023-08-08T06:40:08;2.10;;;1.00;;
13114;SDS011;6623;52.120;8.660;2023-08-08T06:42:34;1.30;;;1.10;;
13114;SDS011;6623;52.120;8.660;2023-08-08T06:44:59;2.57;;;1.23;;
13114;SDS011;6623;52.120;8.660;2023-08-08T06:47:25;3.27;;;1.20;;
13114;SDS011;6623;52.120;8.660;2023-08-08T06:49:50;2.90;;;1.33;;
13114;SDS011;6623;52.120;8.660;2023-08-08T06:52:16;2.47;;;1.30;;
13114;SDS011;6623;52.120;8.660;2023-08-08T06:54:41;1.73;;;1.00;;
13114;SDS011;6623;52.120;8.660;2023-08-08T06:57:07;2.23;;;1.27;;
13114;SDS011;6623;52.120;8.660;2023-08-08T06:59:32;1.70;;;1.20;;
13114;SDS011;6623;52.120;8.660;2023-08-08T07:01:58;1.57;;;0.97;;
13114;SDS011;6623;52.120;8.660;2023-08-08T07:04:23;1.50;;;1.20;;
13114;SDS011;6623;52.120;8.660;2023-08-08T07:06:49;3.10;;;1.67;;
13114;SDS011;6623;52.120;8.660;2023-08-08T07:09:16;2.03;;;1.13;;
13114;SDS011;6623;52.120;8.660;2023-08-08T07:11:42;2.03;;;1.20;;
13114;SDS011;6623;52.120;8.660;2023-08-08T07:14:07;2.03;;;1.00;;
13114;SDS011;6623;52.120;8.660;2023-08-08T07:16:33;2.70;;;1.27;;
13114;SDS011;6623;52.120;8.660;2023-08-08T07:18:59;2.50;;;1.30;;
13114;SDS011;6623;52.120;8.660;2023-08-08T07:21:24;2.37;;;1.07;;
13114;SDS011;6623;52.120;8.660;2023-08-08T07:23:51;1.53;;;1.20;;
13114;SDS011;6623;52.120;8.660;2023-08-08T07:26:16;1.47;;;1.27;;
13114;SDS011;6623;52.120;8.660;2023-08-08T07:28:42;1.97;;;1.30;;
13114;SDS011;6623;52.120;8.660;2023-08-08T07:31:08;1.30;;;1.10;;
13114;SDS011;6623;52.120;8.660;2023-08-08T07:33:33;2.93;;;1.23;;
13114;SDS011;6623;52.120;8.660;2023-08-08T07:35:59;1.50;;;1.20;;
13114;SDS011;6623;52.120;8.660;2023-08-08T07:38:24;1.67;;;1.10;;
13114;SDS011;6623;52.120;8.660;2023-08-08T07:40:50;2.10;;;1.07;;
13114;SDS011;6623;52.120;8.660;2023-08-08T07:43:15;2.50;;;1.30;;
13114;SDS011;6623;52.120;8.660;2023-08-08T07:45:41;1.87;;;1.17;;
13114;SDS011;6623;52.120;8.660;2023-08-08T07:48:07;2.30;;;1.43;;
13114;SDS011;6623;52.120;8.660;2023-08-08T07:50:33;2.47;;;1.30;;
13114;SDS011;6623;52.120;8.660;2023-08-08T07:52:58;1.90;;;1.07;;
13114;SDS011;6623;52.120;8.660;2023-08-08T07:55:24;1.87;;;1.30;;
13114;SDS011;6623;52.120;8.660;2023-08-08T07:57:49;1.67;;;1.27;;
13114;SDS011;6623;52.120;8.660;2023-08-08T08:00:15;2.90;;;1.20;;
13114;SDS011;6623;52.120;8.660;2023-08-08T08:02:43;3.57;;;1.60;;
13114;SDS011;6623;52.120;8.660;2023-08-08T08:05:09;1.87;;;1.13;;
13114;SDS011;6623;52.120;8.660;2023-08-08T08:07:36;2.07;;;1.27;;
13114;SDS011;6623;52.120;8.660;2023-08-08T08:10:03;2.63;;;1.37;;
13114;SDS011;6623;52.120;8.660;2023-08-08T08:12:31;2.00;;;1.10;;
13114;SDS011;6623;52.120;8.660;2023-08-08T08:14:57;3.20;;;1.50;;
13114;SDS011;6623;52.120;8.660;2023-08-08T08:17:23;2.63;;;1.33;;
13114;SDS011;6623;52.120;8.660;2023-08-08T08:19:49;1.90;;;1.37;;
13114;SDS011;6623;52.120;8.660;2023-08-08T08:22:16;2.00;;;1.43;;
13114;SDS011;6623;52.120;8.660;2023-08-08T08:24:41;2.90;;;1.77;;
13114;SDS011;6623;52.120;8.660;2023-08-08T08:27:07;2.60;;;1.33;;
13114;SDS011;6623;52.120;8.660;2023-08-08T08:29:32;2.27;;;1.40;;
13114;SDS011;6623;52.120;8.660;2023-08-08T08:31:58;2.60;;;1.50;;
13114;SDS011;6623;52.120;8.660;2023-08-08T08:34:24;2.43;;;1.50;;
13114;SDS011;6623;52.120;8.660;2023-08-08T08:36:49;3.40;;;1.60;;
13114;SDS011;6623;52.120;8.660;2023-08-08T08:39:15;2.40;;;1.70;;
13114;SDS011;6623;52.120;8.660;2023-08-08T08:41:40;2.30;;;1.77;;
13114;SDS011;6623;52.120;8.660;2023-08-08T08:44:06;2.80;;;1.57;;
13114;SDS011;6623;52.120;8.660;2023-08-08T08:46:33;3.33;;;1.50;;
13114;SDS011;6623;52.120;8.660;2023-08-08T08:49:02;4.20;;;1.60;;
13114;SDS011;6623;52.120;8.660;2023-08-08T08:51:30;2.53;;;1.40;;
13114;SDS011;6623;52.120;8.660;2023-08-08T08:53:56;3.50;;;1.50;;
13114;SDS011;6623;52.120;8.660;2023-08-08T08:56:23;2.50;;;1.40;;
13114;SDS011;6623;52.120;8.660;2023-08-08T08:58:50;1.83;;;1.40;;
13114;SDS011;6623;52.120;8.660;2023-08-08T09:01:16;2.60;;;1.90;;
13114;SDS011;6623;52.120;8.660;2023-08-08T09:03:43;3.57;;;1.70;;
13114;SDS011;6623;52.120;8.660;2023-08-08T09:06:09;3.70;;;1.60;;
13114;SDS011;6623;52.120;8.660;2023-08-08T09:08:37;3.63;;;1.50;;
13114;SDS011;6623;52.120;8.660;2023-08-08T09:11:02;2.27;;;1.73;;
13114;SDS011;6623;52.120;8.660;2023-08-08T09:13:33;2.33;;;1.50;;
13114;SDS011;6623;52.120;8.660;2023-08-08T09:16:04;3.07;;;1.60;;
13114;SDS011;6623;52.120;8.660;2023-08-08T09:18:31;2.27;;;1.50;;
13114;SDS011;6623;52.120;8.660;2023-08-08T09:20:57;2.43;;;1.53;;
13114;SDS011;6623;52.120;8.660;2023-08-08T09:23:23;2.10;;;1.70;;
13114;SDS011;6623;52.120;8.660;2023-08-08T09:25:49;3.47;;;1.90;;
13114;SDS011;6623;52.120;8.660;2023-08-08T09:28:15;3.23;;;1.50;;
13114;SDS011;6623;52.120;8.660;2023-08-08T09:30:41;3.57;;;1.57;;
13114;SDS011;6623;52.120;8.660;2023-08-08T09:33:07;3.40;;;1.93;;
13114;SDS011;6623;52.120;8.660;2023-08-08T09:35:33;2.53;;;1.50;;
13114;SDS011;6623;52.120;8.660;2023-08-08T09:37:58;2.83;;;1.73;;
13114;SDS011;6623;52.120;8.660;2023-08-08T09:40:24;4.57;;;1.70;;
13114;SDS011;6623;52.120;8.660;2023-08-08T09:42:51;2.90;;;1.73;;
13114;SDS011;6623;52.120;8.660;2023-08-08T09:45:18;2.90;;;1.90;;
13114;SDS011;6623;52.120;8.660;2023-08-08T09:47:44;3.30;;;1.67;;
13114;SDS011;6623;52.120;8.660;2023-08-08T09:50:10;2.70;;;1.70;;
13114;SDS011;6623;52.120;8.660;2023-08-08T09:52:36;4.97;;;1.73;;
13114;SDS011;6623;52.120;8.660;2023-08-08T09:55:03;3.50;;;1.80;;
13114;SDS011;6623;52.120;8.660;2023-08-08T09:57:30;2.10;;;1.50;;
13114;SDS011;6623;52.120;8.660;2023-08-08T09:59:57;3.30;;;1.83;;
13114;SDS011;6623;52.120;8.660;2023-08-08T10:02:23;4.63;;;1.60;;
13114;SDS011;6623;52.120;8.660;2023-08-08T10:04:49;3.37;;;1.67;;
13114;SDS011;6623;52.120;8.660;2023-08-08T10:07:15;3.40;;;1.60;;
13114;SDS011;6623;52.120;8.660;2023-08-08T10:09:41;4.03;;;1.70;;
13114;SDS011;6623;52.120;8.660;2023-08-08T10:12:07;3.33;;;1.70;;
13114;SDS011;6623;52.120;8.660;2023-08-08T10:14:37;3.37;;;1.80;;
13114;SDS011;6623;52.120;8.660;2023-08-08T10:17:03;2.53;;;1.40;;
13114;SDS011;6623;52.120;8.660;2023-08-08T10:19:29;3.20;;;1.70;;
13114;SDS011;6623;52.120;8.660;2023-08-08T10:21:59;2.57;;;1.80;;
13114;SDS011;6623;52.120;8.660;2023-08-08T10:24:32;2.63;;;1.60;;
13114;SDS011;6623;52.120;8.660;2023-08-08T10:26:59;2.17;;;1.50;;
13114;SDS011;6623;52.120;8.660;2023-08-08T10:29:27;2.87;;;1.50;;
13114;SDS011;6623;52.120;8.660;2023-08-08T10:32:01;3.73;;;1.40;;
13114;SDS011;6623;52.120;8.660;2023-08-08T10:34:41;2.73;;;1.70;;
13114;SDS011;6623;52.120;8.660;2023-08-08T10:37:11;2.97;;;1.70;;
13114;SDS011;6623;52.120;8.660;2023-08-08T10:39:50;6.73;;;1.90;;
13114;SDS011;6623;52.120;8.660;2023-08-08T10:42:18;3.10;;;1.80;;
13114;SDS011;6623;52.120;8.660;2023-08-08T10:44:50;2.93;;;1.50;;
13114;SDS011;6623;52.120;8.660;2023-08-08T10:47:26;2.70;;;1.50;;
13114;SDS011;6623;52.120;8.660;2023-08-08T10:50:05;2.37;;;1.47;;
13114;SDS011;6623;52.120;8.660;2023-08-08T10:52:38;2.30;;;1.63;;
13114;SDS011;6623;52.120;8.660;2023-08-08T11:00:32;3.53;;;1.50;;
13114;SDS011;6623;52.120;8.660;2023-08-08T11:02:59;2.73;;;1.30;;
13114;SDS011;6623;52.120;8.660;2023-08-08T11:05:28;2.30;;;1.40;;
13114;SDS011;6623;52.120;8.660;2023-08-08T11:07:55;2.50;;;1.43;;
13114;SDS011;6623;52.120;8.660;2023-08-08T11:10:21;3.67;;;1.60;;
13114;SDS011;6623;52.120;8.660;2023-08-08T11:12:57;2.17;;;1.20;;
13114;SDS011;6623;52.120;8.660;2023-08-08T11:15:24;4.43;;;1.47;;
13114;SDS011;6623;52.120;8.660;2023-08-08T11:17:51;3.53;;;1.30;;
13114;SDS011;6623;52.120;8.660;2023-08-08T11:20:18;3.93;;;1.30;;
13114;SDS011;6623;52.120;8.660;2023-08-08T11:22:43;3.77;;;1.40;;
13114;SDS011;6623;52.120;8.660;2023-08-08T11:25:09;2.17;;;1.27;;
13114;SDS011;6623;52.120;8.660;2023-08-08T11:27:35;3.47;;;1.40;;
13114;SDS011;6623;52.120;8.660;2023-08-08T11:30:00;2.70;;;1.30;;
13114;SDS011;6623;52.120;8.660;2023-08-08T11:32:27;2.53;;;1.30;;
13114;SDS011;6623;52.120;8.660;2023-08-08T11:34:53;3.77;;;1.20;;
13114;SDS011;6623;52.120;8.660;2023-08-08T11:37:20;3.27;;;1.37;;
13114;SDS011;6623;52.120;8.660;2023-08-08T11:39:46;1.77;;;1.33;;
13114;SDS011;6623;52.120;8.660;2023-08-08T11:42:11;2.43;;;1.30;;
13114;SDS011;6623;52.120;8.660;2023-08-08T11:44:37;4.20;;;1.40;;
13114;SDS011;6623;52.120;8.660;2023-08-08T11:47:02;1.63;;;1.20;;
13114;SDS011;6623;52.120;8.660;2023-08-08T11:49:28;2.13;;;1.20;;
13114;SDS011;6623;52.120;8.660;2023-08-08T11:51:54;4.80;;;1.43;;
13114;SDS011;6623;52.120;8.660;2023-08-08T11:54:26;2.40;;;1.20;;
13114;SDS011;6623;52.120;8.660;2023-08-08T11:56:53;2.13;;;1.20;;
13114;SDS011;6623;52.120;8.660;2023-08-08T11:59:19;1.73;;;1.00;;
13114;SDS011;6623;52.120;8.660;2023-08-08T12:01:44;2.47;;;1.10;;
13114;SDS011;6623;52.120;8.660;2023-08-08T12:04:10;2.70;;;1.33;;
13114;SDS011;6623;52.120;8.660;2023-08-08T12:06:39;2.20;;;1.23;;
13114;SDS011;6623;52.120;8.660;2023-08-08T12:09:05;2.93;;;1.30;;
13114;SDS011;6623;52.120;8.660;2023-08-08T12:11:34;1.70;;;1.40;;
13114;SDS011;6623;52.120;8.660;2023-08-08T12:14:01;2.67;;;1.20;;
13114;SDS011;6623;52.120;8.660;2023-08-08T12:16:28;2.00;;;1.10;;
13114;SDS011;6623;52.120;8.660;2023-08-08T12:18:57;2.40;;;1.10;;
13114;SDS011;6623;52.120;8.660;2023-08-08T12:21:25;1.73;;;1.20;;
13114;SDS011;6623;52.120;8.660;2023-08-08T12:23:51;2.40;;;1.20;;
13114;SDS011;6623;52.120;8.660;2023-08-08T12:26:17;2.20;;;1.20;;
13114;SDS011;6623;52.120;8.660;2023-08-08T12:28:43;2.43;;;1.10;;
13114;SDS011;6623;52.120;8.660;2023-08-08T12:31:09;1.83;;;1.23;;
13114;SDS011;6623;52.120;8.660;2023-08-08T12:33:34;1.80;;;1.00;;
13114;SDS011;6623;52.120;8.660;2023-08-08T12:36:00;2.93;;;1.10;;
13114;SDS011;6623;52.120;8.660;2023-08-08T12:38:26;2.00;;;1.30;;
13114;SDS011;6623;52.120;8.660;2023-08-08T12:40:51;1.87;;;1.03;;
13114;SDS011;6623;52.120;8.660;2023-08-08T12:43:17;1.70;;;1.00;;
13114;SDS011;6623;52.120;8.660;2023-08-08T12:45:46;2.87;;;1.13;;
13114;SDS011;6623;52.120;8.660;2023-08-08T12:48:12;2.00;;;0.90;;
13114;SDS011;6623;52.120;8.660;2023-08-08T12:50:38;2.10;;;1.00;;
13114;SDS011;6623;52.120;8.660;2023-08-08T12:53:04;1.20;;;1.00;;
13114;SDS011;6623;52.120;8.660;2023-08-08T12:55:30;2.30;;;1.30;;
13114;SDS011;6623;52.120;8.660;2023-08-08T12:57:55;2.13;;;1.10;;
13114;SDS011;6623;52.120;8.660;2023-08-08T13:00:21;2.30;;;1.10;;
13114;SDS011;6623;52.120;8.660;2023-08-08T13:02:47;1.30;;;1.00;;
13114;SDS011;6623;52.120;8.660;2023-08-08T13:05:12;1.47;;;1.00;;
13114;SDS011;6623;52.120;8.660;2023-08-08T13:07:38;1.63;;;0.90;;
13114;SDS011;6623;52.120;8.660;2023-08-08T13:10:04;1.20;;;1.00;;
13114;SDS011;6623;52.120;8.660;2023-08-08T13:12:30;1.40;;;0.97;;
13114;SDS011;6623;52.120;8.660;2023-08-08T13:14:55;2.27;;;1.10;;
13114;SDS011;6623;52.120;8.660;2023-08-08T13:17:21;1.13;;;0.90;;
13114;SDS011;6623;52.120;8.660;2023-08-08T13:19:46;2.00;;;1.07;;
13114;SDS011;6623;52.120;8.660;2023-08-08T13:22:12;1.50;;;0.90;;
13114;SDS011;6623;52.120;8.660;2023-08-08T13:24:38;1.77;;;0.90;;
13114;SDS011;6623;52.120;8.660;2023-08-08T13:27:04;2.40;;;1.20;;
13114;SDS011;6623;52.120;8.660;2023-08-08T13:29:29;1.70;;;1.00;;
13114;SDS011;6623;52.120;8.660;2023-08-08T13:31:55;3.73;;;0.90;;
13114;SDS011;6623;52.120;8.660;2023-08-08T13:34:21;1.47;;;0.93;;
13114;SDS011;6623;52.120;8.660;2023-08-08T13:36:46;0.80;;;0.80;;
13114;SDS011;6623;52.120;8.660;2023-08-08T13:39:12;1.57;;;0.93;;
13114;SDS011;6623;52.120;8.660;2023-08-08T13:41:38;1.67;;;0.77;;
13114;SDS011;6623;52.120;8.660;2023-08-08T13:44:04;2.73;;;1.00;;
13114;SDS011;6623;52.120;8.660;2023-08-08T13:46:29;1.33;;;0.80;;
13114;SDS011;6623;52.120;8.660;2023-08-08T13:48:55;2.67;;;1.00;;
13114;SDS011;6623;52.120;8.660;2023-08-08T13:51:20;1.23;;;0.83;;
13114;SDS011;6623;52.120;8.660;2023-08-08T13:53:46;1.00;;;0.73;;
13114;SDS011;6623;52.120;8.660;2023-08-08T13:56:14;2.50;;;0.93;;
13114;SDS011;6623;52.120;8.660;2023-08-08T13:58:39;1.73;;;0.80;;
13114;SDS011;6623;52.120;8.660;2023-08-08T14:01:05;1.30;;;0.73;;
13114;SDS011;6623;52.120;8.660;2023-08-08T14:03:31;1.40;;;1.00;;
13114;SDS011;6623;52.120;8.660;2023-08-08T14:05:57;1.40;;;0.83;;
13114;SDS011;6623;52.120;8.660;2023-08-08T14:08:22;1.53;;;0.80;;
13114;SDS011;6623;52.120;8.660;2023-08-08T14:10:48;0.70;;;0.60;;
13114;SDS011;6623;52.120;8.660;2023-08-08T14:13:14;0.83;;;0.63;;
13114;SDS011;6623;52.120;8.660;2023-08-08T14:15:40;0.90;;;0.80;;
13114;SDS011;6623;52.120;8.660;2023-08-08T14:18:06;1.57;;;0.70;;
13114;SDS011;6623;52.120;8.660;2023-08-08T14:20:31;0.97;;;0.70;;
13114;SDS011;6623;52.120;8.660;2023-08-08T14:22:57;2.33;;;0.80;;
13114;SDS011;6623;52.120;8.660;2023-08-08T14:25:23;1.30;;;0.77;;
13114;SDS011;6623;52.120;8.660;2023-08-08T14:27:48;1.63;;;0.93;;
13114;SDS011;6623;52.120;8.660;2023-08-08T14:30:14;1.33;;;0.87;;
13114;SDS011;6623;52.120;8.660;2023-08-08T14:32:39;2.03;;;0.80;;
13114;SDS011;6623;52.120;8.660;2023-08-08T14:35:05;2.60;;;0.90;;
13114;SDS011;6623;52.120;8.660;2023-08-08T14:37:33;1.53;;;0.80;;
13114;SDS011;6623;52.120;8.660;2023-08-08T14:39:59;2.27;;;0.90;;
13114;SDS011;6623;52.120;8.660;2023-08-08T14:42:25;1.77;;;0.90;;
13114;SDS011;6623;52.120;8.660;2023-08-08T14:44:51;1.43;;;0.90;;
13114;SDS011;6623;52.120;8.660;2023-08-08T14:47:16;1.40;;;0.77;;
13114;SDS011;6623;52.120;8.660;2023-08-08T14:49:42;0.80;;;0.80;;
13114;SDS011;6623;52.120;8.660;2023-08-08T14:52:07;0.77;;;0.67;;
13114;SDS011;6623;52.120;8.660;2023-08-08T14:54:33;0.73;;;0.70;;
13114;SDS011;6623;52.120;8.660;2023-08-08T14:57:00;0.90;;;0.73;;
13114;SDS011;6623;52.120;8.660;2023-08-08T14:59:26;2.00;;;0.80;;
13114;SDS011;6623;52.120;8.660;2023-08-08T15:01:52;1.30;;;0.83;;